createdAt,value
2018-07-03T00:01:58.620Z,57.61
2018-07-03T00:04:25.058Z,57.46
2018-07-03T00:06:51.382Z,57.45
2018-07-03T00:09:17.706Z,57.27
2018-07-03T00:11:44.088Z,57.41
2018-07-03T00:14:10.429Z,57.61
2018-07-03T00:16:36.849Z,57.47
2018-07-03T00:19:03.293Z,57.69
2018-07-03T00:21:29.771Z,57.49
2018-07-03T00:23:56.140Z,57.53
2018-07-03T00:26:22.566Z,57.47
2018-07-03T00:28:49.167Z,57.28
2018-07-03T00:31:15.566Z,57.24
2018-07-03T00:33:41.931Z,57.14
2018-07-03T00:36:08.398Z,57.23
2018-07-03T00:38:34.871Z,57.25
2018-07-03T00:41:01.500Z,57.21
2018-07-03T00:43:28.004Z,57.58
2018-07-03T00:45:54.524Z,57.15
2018-07-03T00:48:20.881Z,57.22
2018-07-03T00:50:47.508Z,57.18
2018-07-03T00:53:13.890Z,57.11
2018-07-03T00:55:40.453Z,57.09
2018-07-03T00:58:06.820Z,57.21
2018-07-03T01:00:33.378Z,57.37
2018-07-03T01:02:59.912Z,57.29
2018-07-03T01:05:26.298Z,57.42
2018-07-03T01:07:52.776Z,57.63
2018-07-03T01:10:19.336Z,58.03
2018-07-03T01:12:45.733Z,58.34
2018-07-03T01:15:12.252Z,58.61
2018-07-03T01:17:38.575Z,58.60
2018-07-03T01:20:04.944Z,58.56
2018-07-03T01:22:31.282Z,58.63
2018-07-03T01:24:57.686Z,58.67
2018-07-03T01:27:23.993Z,59.29
2018-07-03T01:29:50.371Z,59.24
2018-07-03T01:32:16.726Z,59.22
2018-07-03T01:34:43.342Z,59.08
2018-07-03T01:37:09.748Z,59.35
2018-07-03T01:39:36.126Z,59.49
2018-07-03T01:42:02.591Z,59.34
2018-07-03T01:44:29.139Z,59.21
2018-07-03T01:46:55.520Z,59.16
2018-07-03T01:49:21.930Z,59.52
2018-07-03T01:51:48.364Z,59.32
2018-07-03T01:54:14.743Z,59.61
2018-07-03T01:56:41.071Z,59.35
2018-07-03T01:59:07.387Z,59.28
2018-07-03T02:01:34.025Z,59.34
2018-07-03T02:04:00.552Z,59.40
2018-07-03T02:06:26.984Z,59.38
2018-07-03T02:08:53.388Z,59.41
2018-07-03T02:11:19.774Z,59.31
2018-07-03T02:13:46.280Z,59.38
2018-07-03T02:16:12.695Z,59.34
2018-07-03T02:18:39.063Z,59.45
2018-07-03T02:21:05.506Z,59.23
2018-07-03T02:23:31.866Z,59.81
2018-07-03T02:25:58.200Z,59.61
2018-07-03T02:28:24.562Z,59.68
2018-07-03T02:30:51.027Z,59.42
2018-07-03T02:33:17.396Z,59.50
2018-07-03T02:35:43.742Z,59.77
2018-07-03T02:38:10.038Z,59.83
2018-07-03T02:40:36.425Z,59.73
2018-07-03T02:43:02.795Z,59.68
2018-07-03T02:45:29.255Z,59.72
2018-07-03T02:47:55.585Z,59.51
2018-07-03T02:50:22.047Z,60.01
2018-07-03T02:52:48.422Z,59.61
2018-07-03T02:55:14.793Z,59.25
2018-07-03T02:57:41.132Z,58.95
2018-07-03T03:00:07.506Z,59.06
2018-07-03T03:02:33.851Z,58.81
2018-07-03T03:05:00.162Z,58.62
2018-07-03T03:07:26.628Z,58.54
2018-07-03T03:09:53.138Z,58.40
2018-07-03T03:12:19.684Z,58.30
2018-07-03T03:14:46.008Z,58.15
2018-07-03T03:17:12.321Z,58.24
2018-07-03T03:19:38.639Z,58.10
2018-07-03T03:22:05.087Z,58.05
2018-07-03T03:24:31.412Z,57.94
2018-07-03T03:26:57.766Z,58.08
2018-07-03T03:29:24.122Z,57.91
2018-07-03T03:31:50.726Z,58.04
2018-07-03T03:34:17.078Z,57.93
2018-07-03T03:36:43.463Z,58.00
2018-07-03T03:39:09.871Z,57.95
2018-07-03T03:41:36.178Z,57.99
2018-07-03T03:44:02.622Z,57.67
2018-07-03T03:46:29.071Z,57.86
2018-07-03T03:48:55.527Z,57.74
2018-07-03T03:51:21.853Z,57.41
2018-07-03T03:53:48.365Z,57.49
2018-07-03T03:56:14.879Z,57.30
2018-07-03T03:58:41.204Z,57.09
2018-07-03T04:01:07.593Z,57.26
2018-07-03T04:03:33.961Z,57.33
2018-07-03T04:06:00.391Z,57.23
2018-07-03T04:08:26.958Z,57.01
2018-07-03T04:10:53.335Z,56.90
2018-07-03T04:13:19.698Z,57.07
2018-07-03T04:15:46.008Z,56.97
2018-07-03T04:18:12.398Z,56.72
2018-07-03T04:20:38.721Z,56.69
2018-07-03T04:23:05.087Z,57.18
2018-07-03T04:25:31.410Z,56.98
2018-07-03T04:27:57.937Z,57.02
2018-07-03T04:30:24.465Z,57.21
2018-07-03T04:32:50.843Z,57.00
2018-07-03T04:35:17.230Z,57.19
2018-07-03T04:37:43.600Z,57.00
2018-07-03T04:40:10.152Z,56.77
2018-07-03T04:42:36.479Z,56.57
2018-07-03T04:45:02.820Z,56.47
2018-07-03T04:47:29.191Z,56.75
2018-07-03T04:49:55.524Z,56.72
2018-07-03T04:52:22.143Z,56.34
2018-07-03T04:54:48.487Z,56.77
2018-07-03T04:57:14.845Z,56.44
2018-07-03T04:59:41.188Z,56.21
2018-07-03T05:02:07.543Z,56.51
2018-07-03T05:04:33.923Z,56.42
2018-07-03T05:07:00.256Z,56.21
2018-07-03T05:09:26.615Z,56.33
2018-07-03T05:11:52.967Z,56.48
2018-07-03T05:14:19.442Z,56.28
2018-07-03T05:16:45.790Z,56.43
2018-07-03T05:19:12.155Z,56.45
2018-07-03T05:21:38.475Z,56.21
2018-07-03T05:24:04.885Z,56.44
2018-07-03T05:26:31.560Z,56.36
2018-07-03T05:28:57.917Z,56.01
2018-07-03T05:31:24.566Z,56.20
2018-07-03T05:33:50.978Z,56.29
2018-07-03T05:36:17.515Z,56.29
2018-07-03T05:38:43.888Z,56.44
2018-07-03T05:41:10.409Z,56.38
2018-07-03T05:43:36.893Z,56.48
2018-07-03T05:46:03.545Z,56.55
2018-07-03T05:48:29.870Z,56.55
2018-07-03T05:50:56.267Z,56.89
2018-07-03T05:53:22.661Z,56.71
2018-07-03T05:55:49.053Z,56.49
2018-07-03T05:58:15.463Z,56.68
2018-07-03T06:00:41.830Z,56.34
2018-07-03T06:03:08.361Z,56.46
2018-07-03T06:05:34.765Z,56.70
2018-07-03T06:08:01.118Z,56.86
2018-07-03T06:10:27.951Z,56.75
2018-07-03T06:12:54.306Z,56.66
2018-07-03T06:15:20.878Z,56.73
2018-07-03T06:17:47.545Z,56.35
2018-07-03T06:20:16.123Z,56.43
2018-07-03T06:22:46.750Z,56.11
2018-07-03T06:25:14.659Z,56.02
2018-07-03T06:27:49.279Z,56.16
2018-07-03T06:39:00.573Z,56.25
2018-07-03T06:41:33.104Z,56.38
2018-07-03T06:44:08.794Z,56.31
2018-07-03T06:46:35.405Z,56.58
2018-07-03T06:49:01.760Z,56.50
2018-07-03T06:51:28.139Z,56.01
2018-07-03T06:53:54.664Z,56.08
2018-07-03T06:56:20.987Z,55.67
2018-07-03T06:58:47.658Z,55.69
2018-07-03T07:01:14.141Z,55.61
2018-07-03T07:03:41.592Z,55.61
2018-07-03T07:06:07.908Z,55.76
2018-07-03T07:08:34.423Z,55.65
2018-07-03T07:11:00.768Z,55.52
2018-07-03T07:13:27.130Z,55.51
2018-07-03T07:15:53.623Z,55.36
2018-07-03T07:18:20.039Z,55.18
2018-07-03T07:20:46.462Z,55.50
2018-07-03T07:23:13.081Z,55.52
2018-07-03T07:25:39.420Z,55.36
2018-07-03T07:28:05.805Z,55.53
2018-07-03T07:30:32.303Z,55.55
2018-07-03T07:32:58.869Z,55.24
2018-07-03T07:35:25.493Z,55.26
2018-07-03T07:37:51.986Z,55.61
2018-07-03T07:40:18.392Z,55.37
2018-07-03T07:42:45.095Z,55.66
2018-07-03T07:45:11.605Z,55.45
2018-07-03T07:47:38.074Z,55.44
2018-07-03T07:50:04.470Z,55.34
2018-07-03T07:52:31.166Z,55.42
2018-07-03T07:54:57.613Z,55.28
2018-07-03T07:57:23.956Z,55.23
2018-07-03T07:59:52.161Z,54.88
2018-07-03T08:02:18.529Z,54.94
2018-07-03T08:04:45.167Z,54.95
2018-07-03T08:07:11.682Z,54.65
2018-07-03T08:09:38.103Z,54.69
2018-07-03T08:12:04.614Z,54.75
2018-07-03T08:14:31.084Z,54.92
2018-07-03T08:16:58.428Z,54.76
2018-07-03T08:19:25.096Z,54.78
2018-07-03T08:21:51.508Z,54.57
2018-07-03T08:24:17.875Z,54.83
2018-07-03T08:26:44.257Z,54.77
2018-07-03T08:29:10.611Z,54.56
2018-07-03T08:31:37.088Z,54.70
2018-07-03T08:34:03.492Z,54.80
2018-07-03T08:36:31.105Z,54.27
2018-07-03T08:38:57.746Z,54.39
2018-07-03T08:41:24.206Z,54.24
2018-07-03T08:43:50.918Z,54.53
2018-07-03T08:46:17.355Z,54.42
2018-07-03T08:48:43.873Z,54.66
2018-07-03T08:51:10.319Z,54.33
2018-07-03T08:53:36.963Z,54.35
2018-07-03T08:56:04.481Z,54.59
2018-07-03T08:58:31.106Z,54.35
2018-07-03T09:00:57.684Z,54.43
2018-07-03T09:03:24.336Z,54.40
2018-07-03T09:05:50.913Z,54.09
2018-07-03T09:08:17.337Z,54.17
2018-07-03T09:10:43.812Z,54.26
2018-07-03T09:13:10.431Z,54.28
2018-07-03T09:15:36.870Z,54.30
2018-07-03T09:18:03.392Z,54.23
2018-07-03T09:20:29.828Z,54.23
2018-07-03T09:22:56.168Z,54.31
2018-07-03T09:25:22.790Z,54.32
2018-07-03T09:27:49.186Z,54.43
2018-07-03T09:30:15.588Z,54.33
2018-07-03T09:32:42.037Z,54.53
2018-07-03T09:35:08.479Z,54.73
2018-07-03T09:37:35.066Z,54.63
2018-07-03T09:40:01.463Z,54.27
2018-07-03T09:42:27.923Z,54.70
2018-07-03T09:44:54.251Z,54.69
2018-07-03T09:47:20.617Z,54.90
2018-07-03T09:49:46.997Z,54.66
2018-07-03T09:52:13.512Z,54.80
2018-07-03T09:54:39.907Z,54.78
2018-07-03T09:57:07.109Z,54.77
2018-07-03T09:59:33.740Z,54.67
2018-07-03T10:02:00.110Z,54.47
2018-07-03T10:04:26.698Z,54.27
2018-07-03T10:06:53.294Z,54.58
2018-07-03T10:09:19.700Z,54.18
2018-07-03T10:11:46.204Z,54.37
2018-07-03T10:14:12.700Z,54.34
2018-07-03T10:16:39.542Z,54.39
2018-07-03T10:19:08.025Z,54.66
2018-07-03T10:21:34.735Z,54.73
2018-07-03T10:24:01.257Z,54.39
2018-07-03T10:26:27.869Z,54.30
2018-07-03T10:28:54.564Z,54.30
2018-07-03T10:31:21.265Z,54.41
2018-07-03T10:33:49.029Z,54.12
2018-07-03T10:36:15.471Z,54.11
2018-07-03T10:38:42.008Z,54.22
2018-07-03T10:41:10.491Z,53.99
2018-07-03T10:43:47.620Z,53.90
2018-07-03T10:51:33.145Z,53.91
2018-07-03T10:54:00.087Z,54.32
2018-07-03T10:56:26.885Z,53.63
2018-07-03T10:58:56.094Z,53.69
2018-07-03T11:01:23.161Z,53.67
2018-07-03T11:03:50.341Z,53.71
2018-07-03T11:06:18.239Z,53.53
2018-07-03T11:08:45.096Z,53.14
2018-07-03T11:11:14.104Z,53.56
2018-07-03T11:13:42.232Z,53.28
2018-07-03T11:16:08.784Z,53.42
2018-07-03T11:18:36.561Z,53.26
2018-07-03T11:21:03.141Z,53.38
2018-07-03T11:23:29.987Z,53.35
2018-07-03T11:25:57.623Z,52.92
2018-07-03T11:28:26.793Z,53.14
2018-07-03T12:15:45.797Z,52.77
2018-07-03T12:18:13.633Z,52.59
2018-07-03T12:20:48.668Z,52.36
2018-07-03T12:23:16.648Z,52.46
2018-07-03T12:25:44.284Z,52.51
2018-07-03T12:28:11.203Z,52.40
2018-07-03T12:41:22.276Z,51.90
2018-07-03T12:43:54.469Z,51.91
2018-07-03T12:46:21.794Z,51.85
2018-07-03T12:48:50.950Z,51.95
2018-07-03T12:51:17.904Z,51.74
2018-07-03T12:53:48.006Z,51.80
2018-07-03T12:56:14.950Z,51.81
2018-07-03T12:58:41.912Z,51.61
2018-07-03T13:01:10.987Z,52.10
2018-07-03T13:11:12.679Z,52.13
2018-07-03T13:13:44.035Z,51.96
2018-07-03T13:16:10.803Z,51.84
2018-07-03T13:18:38.229Z,51.73
2018-07-03T13:21:13.306Z,51.46
2018-07-03T13:23:43.896Z,51.57
2018-07-03T13:26:11.280Z,51.87
2018-07-03T13:28:38.173Z,51.93
2018-07-03T13:31:13.638Z,51.79
2018-07-03T13:47:03.138Z,51.54
2018-07-03T13:49:42.921Z,51.59
2018-07-03T13:52:19.637Z,51.55
2018-07-03T13:57:26.890Z,51.86
2018-07-03T13:59:53.776Z,51.67
2018-07-03T14:02:21.032Z,51.66
2018-07-03T14:04:54.617Z,51.52
2018-07-03T14:10:01.299Z,51.37
2018-07-03T14:12:31.396Z,51.46
2018-07-03T14:15:00.419Z,51.46
2018-07-03T14:17:27.173Z,51.39
2018-07-03T14:38:33.569Z,51.32
2018-07-03T14:41:00.473Z,51.73
2018-07-03T14:43:28.629Z,51.73
2018-07-03T14:45:55.473Z,51.58
2018-07-03T14:48:22.227Z,51.49
2018-07-03T14:50:49.765Z,51.69
2018-07-03T14:53:16.517Z,51.76
2018-07-03T14:55:44.761Z,51.46
2018-07-03T14:58:11.507Z,51.62
2018-07-03T15:00:38.218Z,51.53
2018-07-03T15:03:05.610Z,51.46
2018-07-03T15:05:33.517Z,51.52
2018-07-03T15:08:00.389Z,51.49
2018-07-03T15:10:26.943Z,51.73
2018-07-03T15:12:55.095Z,51.65
2018-07-03T15:15:21.836Z,51.62
2018-07-03T15:17:48.790Z,51.47
2018-07-03T15:20:15.806Z,51.48
2018-07-03T15:22:42.294Z,51.77
2018-07-03T15:25:08.959Z,51.67
2018-07-03T15:27:41.236Z,51.48
2018-07-03T15:30:07.743Z,51.90
2018-07-03T15:32:35.121Z,51.97
2018-07-03T15:35:01.694Z,52.07
2018-07-03T15:37:33.473Z,52.08
2018-07-03T15:40:02.425Z,51.95
2018-07-03T15:42:29.818Z,52.27
2018-07-03T15:44:56.433Z,52.60
2018-07-03T15:47:22.970Z,52.88
2018-07-03T15:52:27.886Z,52.89
2018-07-03T15:54:55.301Z,53.27
2018-07-03T15:57:22.097Z,53.55
2018-07-03T15:59:49.401Z,53.48
2018-07-03T16:02:16.385Z,53.75
2018-07-03T16:04:43.716Z,53.50
2018-07-03T16:07:10.351Z,53.91
2018-07-03T16:09:36.829Z,53.93
2018-07-03T16:12:03.848Z,53.92
2018-07-03T16:14:31.208Z,54.06
2018-07-03T16:16:57.807Z,54.33
2018-07-03T16:19:24.298Z,54.30
2018-07-03T16:21:51.608Z,54.15
2018-07-03T16:24:18.296Z,54.42
2018-07-03T16:26:47.666Z,54.60
2018-07-03T16:29:14.864Z,54.23
2018-07-03T16:31:41.322Z,54.55
2018-07-03T16:34:07.775Z,54.61
2018-07-03T16:36:34.397Z,54.65
2018-07-03T16:39:02.770Z,54.55
2018-07-03T16:41:30.130Z,54.86
2018-07-03T16:43:56.582Z,54.93
2018-07-03T16:46:23.008Z,54.68
2018-07-03T16:48:52.073Z,54.86
2018-07-03T16:51:19.302Z,54.97
2018-07-03T16:53:45.697Z,54.98
2018-07-03T16:56:12.098Z,54.81
2018-07-03T16:58:38.470Z,55.06
2018-07-03T17:01:05.404Z,55.29
2018-07-03T17:03:32.031Z,55.35
2018-07-03T17:05:58.419Z,55.66
2018-07-03T17:08:25.795Z,55.09
2018-07-03T17:10:52.185Z,54.87
2018-07-03T17:13:19.112Z,54.74
2018-07-03T17:15:46.932Z,55.07
2018-07-03T17:18:13.295Z,54.48
2018-07-03T17:20:42.092Z,54.46
2018-07-03T17:23:08.479Z,54.45
2018-07-03T17:25:35.126Z,54.70
2018-07-03T17:28:01.855Z,54.76
2018-07-03T17:30:28.187Z,54.65
2018-07-03T17:32:54.679Z,54.68
2018-07-03T17:35:21.069Z,54.65
2018-07-03T17:37:47.729Z,56.25
2018-07-03T17:40:14.303Z,56.78
2018-07-03T17:42:40.716Z,56.56
2018-07-03T17:45:07.468Z,56.94
2018-07-03T17:47:34.019Z,57.06
2018-07-03T17:50:01.374Z,56.94
2018-07-03T17:52:28.130Z,57.17
2018-07-03T17:54:54.815Z,56.82
2018-07-03T17:57:21.218Z,56.08
2018-07-03T17:59:47.776Z,56.79
2018-07-03T18:02:14.124Z,57.51
2018-07-03T18:04:40.520Z,56.98
2018-07-03T18:07:07.589Z,55.95
2018-07-03T18:09:34.054Z,58.25
2018-07-03T18:12:00.492Z,58.12
2018-07-03T18:14:26.918Z,58.38
2018-07-03T18:16:53.388Z,57.77
2018-07-03T18:19:19.834Z,57.94
2018-07-03T18:21:46.195Z,58.43
2018-07-03T18:24:12.558Z,58.61
2018-07-03T18:26:39.079Z,58.85
2018-07-03T18:29:05.296Z,59.19
2018-07-03T18:31:31.890Z,59.07
2018-07-03T18:33:59.386Z,59.09
2018-07-03T18:36:25.730Z,58.94
2018-07-03T18:38:52.376Z,58.83
2018-07-03T18:41:18.742Z,59.38
2018-07-03T18:43:45.243Z,59.40
2018-07-03T18:46:11.721Z,59.65
2018-07-03T18:48:38.019Z,59.33
2018-07-03T18:51:04.529Z,60.03
2018-07-03T18:53:30.867Z,58.90
2018-07-03T18:55:57.265Z,58.92
2018-07-03T18:58:24.055Z,58.34
2018-07-03T19:00:50.868Z,59.01
2018-07-03T19:03:17.367Z,59.35
2018-07-03T19:05:43.864Z,59.53
2018-07-03T19:08:10.311Z,59.57
2018-07-03T19:10:37.031Z,59.06
2018-07-03T19:13:03.691Z,59.23
2018-07-03T19:15:30.091Z,59.74
2018-07-03T19:17:56.721Z,59.61
2018-07-03T19:20:23.176Z,59.52
2018-07-03T19:22:49.533Z,59.68
2018-07-03T19:25:16.091Z,59.69
2018-07-03T19:27:42.698Z,59.28
2018-07-03T19:30:09.266Z,58.96
2018-07-03T19:32:36.277Z,58.73
2018-07-03T19:35:02.617Z,58.54
2018-07-03T19:37:29.120Z,58.11
2018-07-03T19:42:28.035Z,58.01
2018-07-03T19:44:54.359Z,57.98
2018-07-03T19:47:20.821Z,57.56
2018-07-03T19:49:47.520Z,57.86
2018-07-03T19:52:14.073Z,57.42
2018-07-03T19:54:40.445Z,57.77
2018-07-03T19:57:07.183Z,57.58
2018-07-03T19:59:33.588Z,57.79
2018-07-03T20:02:00.093Z,57.93
2018-07-03T20:04:26.592Z,57.98
2018-07-03T20:06:53.005Z,57.80
2018-07-03T20:09:19.783Z,57.69
2018-07-03T20:11:46.158Z,57.68
2018-07-03T20:14:12.530Z,57.73
2018-07-03T20:16:39.186Z,57.76
2018-07-03T20:19:05.712Z,57.99
2018-07-03T20:21:32.425Z,57.84
2018-07-03T20:23:58.766Z,57.79
2018-07-03T20:26:25.260Z,57.73
2018-07-03T20:28:51.833Z,57.82
2018-07-03T20:31:18.530Z,57.88
2018-07-03T20:33:44.914Z,57.57
2018-07-03T20:36:11.539Z,57.97
2018-07-03T20:38:38.328Z,58.06
2018-07-03T20:41:05.179Z,57.80
2018-07-03T20:43:31.964Z,57.97
2018-07-03T20:45:58.424Z,57.82
2018-07-03T20:48:25.188Z,57.74
2018-07-03T20:50:51.554Z,57.60
2018-07-03T20:53:17.919Z,57.76
2018-07-03T20:55:45.097Z,57.76
2018-07-03T20:58:11.843Z,57.62
2018-07-03T21:00:38.245Z,57.71
2018-07-03T21:03:04.747Z,57.87
2018-07-03T21:05:31.146Z,57.80
2018-07-03T21:07:57.592Z,57.52
2018-07-03T21:10:24.266Z,57.73
2018-07-03T21:12:50.760Z,57.74
2018-07-03T21:15:17.106Z,57.56
2018-07-03T21:17:43.750Z,57.78
2018-07-03T21:20:10.641Z,57.76
2018-07-03T21:22:36.996Z,57.78
2018-07-03T21:25:03.634Z,57.76
2018-07-03T21:27:31.619Z,57.99
2018-07-03T21:29:58.153Z,57.67
2018-07-03T21:32:25.496Z,57.69
2018-07-03T21:34:51.876Z,57.81
2018-07-03T21:37:18.259Z,59.34
2018-07-03T21:39:45.396Z,59.05
2018-07-03T21:42:11.861Z,58.23
2018-07-03T21:44:38.652Z,58.30
2018-07-03T21:47:05.171Z,58.02
2018-07-03T21:49:32.054Z,57.96
2018-07-03T21:51:58.597Z,57.93
2018-07-03T21:54:25.916Z,57.79
2018-07-03T21:56:52.670Z,58.05
2018-07-03T21:59:19.095Z,58.19
2018-07-03T22:01:46.231Z,58.20
2018-07-03T22:04:12.639Z,57.79
2018-07-03T22:06:40.708Z,57.98
2018-07-03T22:09:07.137Z,57.95
2018-07-03T22:11:33.600Z,57.89
2018-07-03T22:14:00.058Z,58.08
2018-07-03T22:16:26.416Z,57.95
2018-07-03T22:18:54.612Z,57.88
2018-07-03T22:21:21.807Z,57.76
2018-07-03T22:23:49.785Z,57.80
2018-07-03T22:26:16.223Z,57.77
2018-07-03T22:28:42.551Z,57.71
2018-07-03T22:31:09.402Z,57.71
2018-07-03T22:33:35.756Z,57.74
2018-07-03T22:36:02.201Z,58.06
2018-07-03T22:38:28.771Z,58.11
2018-07-03T22:40:55.225Z,58.26
2018-07-03T22:43:21.948Z,58.27
2018-07-03T22:45:50.459Z,58.11
2018-07-03T22:48:17.029Z,57.91
2018-07-03T22:50:43.576Z,58.14
2018-07-03T22:53:10.035Z,58.03
2018-07-03T22:55:37.223Z,58.39
2018-07-03T22:58:03.902Z,58.23
2018-07-03T23:00:30.482Z,58.10
2018-07-03T23:02:57.383Z,57.92
2018-07-03T23:05:23.911Z,57.94
2018-07-03T23:07:50.573Z,58.16
2018-07-03T23:10:17.361Z,58.05
2018-07-03T23:12:44.023Z,58.09
2018-07-03T23:15:10.401Z,58.20
2018-07-03T23:17:36.928Z,58.14
2018-07-03T23:20:03.490Z,58.24
2018-07-03T23:22:30.043Z,58.31
2018-07-03T23:24:56.615Z,58.08
2018-07-03T23:27:23.824Z,58.27
2018-07-03T23:29:50.706Z,58.19
2018-07-03T23:32:17.069Z,58.52
2018-07-03T23:34:43.894Z,58.54
2018-07-03T23:37:10.400Z,58.44
2018-07-03T23:39:36.837Z,58.38
2018-07-03T23:42:03.406Z,58.28
2018-07-03T23:44:29.759Z,58.13
2018-07-03T23:46:56.144Z,58.22
2018-07-03T23:49:27.295Z,58.22
2018-07-03T23:51:54.030Z,58.23
2018-07-03T23:54:21.065Z,58.32
2018-07-03T23:56:49.170Z,58.25
2018-07-03T23:59:15.482Z,58.26
